Terminal Aerodrome Forecast
Issued by NWS North Platte, NE

Home | Current Version | Previous Version | Text Only | Print | Product List | Glossary Off
Versions: 1 2 3 4 5 6 7 8 9 10 11 12 13 14 15 16

000
FTUS43 KLBF 132100 AAB
TAFVTN
TAF AMD
KVTN 132110Z 1321/1418 36022G32KT P6SM OVC080
     FM140300 36015G22KT P6SM BKN080
     FM140800 33011KT P6SM BKN070
     FM141500 31013G24KT P6SM BKN040=

USA.gov is the U.S. government's official web portal to all federal, state and local government web resources and services.